Nearby METAR Reports

 

KOXC - Oxford/Waterbury, Connecticut, USA
Distance from station: SE 8mi, 12km
Updated: Tue, 19-Sep-2017 5:51pm EDT
Light rain, Overcast
Light rain, Overcast
 Wind from NNE
Wind: NNE 14 mph , 22 km/h, Gust: 22 mph , 35 km/h
Temperature: 66°F , 19°C
Dew Point: 64°F , 18°C
Humidity: 94%
Barometer: 29.96 inHg , 1014.6 hPa
Summary: Light rain
Clouds: Overcast
Visibility: 10 miles , 16 km
Cloud details: Partly cloudy 2000 ft
Overcast 6000 ft
2017/09/19 21:51 KOXC 192151Z 02012G19KT 10SM -RA SCT020 OVC060 19/18 A2996 RMK AO2 SLP152 P0001 T01940178
KDXR - Danbury, Connecticut, USA
Distance from station: SW 19mi, 30km
Updated: Tue, 19-Sep-2017 6:06pm EDT
Rain, Mist, Overcast
Rain, Mist, Overcast
 Wind from NNE
Wind: NNE 7 mph , 11 km/h
Temperature: 70°F , 21°C
Dew Point: 66°F , 19°C
Humidity: 88%
Barometer: 29.96 inHg , 1014.6 hPa
Summary: Rain, Mist
Clouds: Overcast
Visibility: 4 miles , 6 km
Cloud details: Partly cloudy 6000 ft
Mostly cloudy 7000 ft
Overcast 9000 ft
2017/09/19 22:06 KDXR 192206Z 03006KT 4SM RA BR SCT060 BKN070 OVC090 21/19 A2996 RMK AO2 P0002 T02060189
 
KMMK - Meriden, Connecticut, USA
Distance from station: E 20mi, 33km
Updated: Tue, 19-Sep-2017 5:53pm EDT
Light rain, Overcast
Light rain, Overcast
 Wind from N
Wind: N 9 mph , 15 km/h, Gust: 20 mph , 31 km/h
Temperature: 72°F , 22°C
Dew Point: 64°F , 18°C
Humidity: 78%
Barometer: 29.93 inHg , 1013.5 hPa
Summary: Light rain
Clouds: Overcast
Visibility: 10 miles , 16 km
Cloud details: Overcast 6500 ft
2017/09/19 21:53 KMMK 192153Z AUTO 01008G17KT 10SM -RA OVC065 22/18 A2993 RMK AO2 RAB50 SLP135 P0000 T02170178 TSNO
KBDR - Bridgeport, Connecticut, USA
Distance from station: S 27mi, 44km
Updated: Tue, 19-Sep-2017 5:52pm EDT
Overcast
Overcast
 Wind from N
Wind: N 17 mph , 28 km/h, Gust: 26 mph , 43 km/h
Temperature: 72°F , 22°C
Dew Point: 66°F , 19°C
Humidity: 83%
Barometer: 29.89 inHg , 1012.2 hPa
Clouds: Overcast
Visibility: 10 miles , 16 km
Cloud details: Few Clouds 4100 ft
Overcast 5000 ft
2017/09/19 21:52 KBDR 192152Z 01015G23KT 10SM FEW041 OVC050 22/19 A2989 RMK AO2 RAE2056B31E41 SLP123 P0000 T02170189
 
KHVN - New Haven/Tweed, Connecticut, USA
Distance from station: SE 27mi, 44km
Updated: Tue, 19-Sep-2017 5:53pm EDT
Light rain, Overcast
Light rain, Overcast
 Wind from NNE
Wind: NNE 16 mph , 26 km/h, Gust: 26 mph , 43 km/h
Temperature: 72°F , 22°C
Dew Point: 64°F , 18°C
Humidity: 78%
Barometer: 29.90 inHg , 1012.5 hPa
Summary: Light rain
Clouds: Overcast
Visibility: 10 miles , 16 km
Cloud details: Few Clouds 4200 ft
Mostly cloudy 6000 ft
Overcast 7500 ft
2017/09/19 21:53 KHVN 192153Z 02014G23KT 10SM -RA FEW042 BKN060 OVC075 22/18 A2990 RMK AO2 RAB51 SLP125 P0000 T02170183
KHFD - Hartford/Brainar, Connecticut, USA
Distance from station: ENE 32mi, 52km
Updated: Tue, 19-Sep-2017 5:53pm EDT
Overcast
Overcast
 Wind from N
Wind: N 9 mph , 15 km/h
Temperature: 73°F , 23°C
Dew Point: 64°F , 18°C
Humidity: 74%
Barometer: 29.95 inHg , 1014.2 hPa
Clouds: Overcast
Visibility: 10 miles , 16 km
Cloud details: Few Clouds 2400 ft
Overcast 7000 ft
2017/09/19 21:53 KHFD 192153Z 01008KT 10SM FEW024 OVC070 23/18 A2995 RMK AO2 SLP141 T02280183
 
KPOU - Poughkeepsie, New York, USA
Distance from station: W 35mi, 56km
Updated: Tue, 19-Sep-2017 5:53pm EDT
Overcast
Overcast
 Wind from NE
Wind: NE 10 mph , 17 km/h
Temperature: 75°F , 24°C
Dew Point: 63°F , 17°C
Humidity: 65%
Barometer: 29.94 inHg , 1013.9 hPa
Clouds: Overcast
Visibility: 10 miles , 16 km
Cloud details: Overcast 8000 ft
2017/09/19 21:53 KPOU 192153Z 04009KT 10SM OVC080 24/17 A2994 RMK AO2 SLP134 T02440167
KBDL - Windsor Locks, Connecticut, USA
Distance from station: NE 38mi, 62km
Updated: Tue, 19-Sep-2017 6:06pm EDT
Overcast
Overcast
 Wind from NE
Wind: NE 14 mph , 22 km/h
Temperature: 72°F , 22°C
Dew Point: 64°F , 18°C
Humidity: 78%
Barometer: 29.97 inHg , 1014.9 hPa
Clouds: Overcast
Visibility: 10 miles , 16 km
Cloud details: Mostly cloudy 2200 ft
Mostly cloudy 6500 ft
Overcast 10000 ft
2017/09/19 22:06 KBDL 192206Z 04012KT 10SM BKN022 BKN065 OVC100 22/18 A2997 RMK AO2 T02220178
 
KSNC - Chester, Connecticut, USA
Distance from station: ESE 39mi, 63km
Updated: Tue, 19-Sep-2017 6:15pm EDT
Light rain, Overcast
Light rain, Overcast
 Wind from NNE
Wind: NNE 14 mph , 22 km/h, Gust: 22 mph , 35 km/h
Temperature: 70°F , 21°C
Dew Point: 66°F , 19°C
Humidity: 88%
Barometer: 29.92 inHg , 1013.2 hPa
Summary: Light rain
Clouds: Overcast
Visibility: 8 miles , 13 km
Cloud details: Mostly cloudy 1800 ft
Overcast 3100 ft
2017/09/19 22:15 KSNC 192215Z AUTO 02012G19KT 8SM -RA BKN018 OVC031 21/19 A2992 RMK AO2
KHPN - White Plains, New York, USA
Distance from station: SW 42mi, 67km
Updated: Tue, 19-Sep-2017 5:56pm EDT
Light rain, Overcast
Light rain, Overcast
 Wind from N
Wind: N 16 mph , 26 km/h, Gust: 23 mph , 37 km/h
Temperature: 72°F , 22°C
Dew Point: 64°F , 18°C
Humidity: 78%
Barometer: 29.91 inHg , 1012.9 hPa
Summary: Light rain
Clouds: Overcast
Visibility: 10 miles , 16 km
Cloud details: Partly cloudy 4700 ft
Overcast 5500 ft
2017/09/19 21:56 KHPN 192156Z 36014G20KT 10SM -RA SCT047 OVC055 22/18 A2991 RMK AO2 RAB2057 SLP124 P0000 T02170178
 
KSWF - Newburgh/Stewart, New York, USA
Distance from station: W 45mi, 72km
Updated: Tue, 19-Sep-2017 5:45pm EDT
Mostly cloudy
Mostly cloudy
 Wind from NE
Wind: NE 12 mph , 19 km/h
Temperature: 75°F , 24°C
Dew Point: 66°F , 19°C
Humidity: 74%
Barometer: 29.97 inHg , 1014.9 hPa
Clouds: Mostly cloudy
Visibility: 15 miles , 24 km
Cloud details: Mostly cloudy 4000 ft
Mostly cloudy 7000 ft
2017/09/19 21:45 KSWF 192145Z 05010KT 15SM BKN040 BKN070 24/19 A2997
KBAF - Westfield, Massachusetts, USA
Distance from station: NNE 50mi, 80km
Updated: Tue, 19-Sep-2017 5:53pm EDT
Overcast
Overcast
 Wind from NNE
Wind: NNE 12 mph , 19 km/h, Gust: 20 mph , 31 km/h
Temperature: 73°F , 23°C
Dew Point: 64°F , 18°C
Humidity: 74%
Barometer: 29.99 inHg , 1015.6 hPa
Clouds: Overcast
Visibility: 10 miles , 16 km
Cloud details: Overcast 7000 ft
2017/09/19 21:53 KBAF 192153Z 02010G17KT 10SM OVC070 23/18 A2999 RMK AO2 SLP153 T02280178